Terminal Aerodrome Forecast
Issued by NWS

Home | Current Version | Previous Version | Text Only | Print | Product List | Glossary On
Versions: 1 2 3 4 5 6 7 8 9 10 11 12 13 14 15 16 17 18
000
FTUS43 KDLH 231127
TAFHYR
TAF
KHYR 231127Z 2312/2412 19006KT P6SM BKN110
     FM231600 18009G16KT P6SM BKN100
     FM240000 19006KT P6SM BKN100=

USA.gov is the U.S. government's official web portal to all federal, state and local government web resources and services.